Time;durP1;ratioP1;P1;durP2;ratioP2;P2;SDS_P1;SDS_P2;PMS_P1;PMS_P2;Temp;Humidity;BMP_temperature;BMP_pressure;BME280_temperature;BME280_humidity;BME280_pressure;Samples;Min_cycle;Max_cycle;Signal;HPM_P1;HPM_P2
2022/10/09 00:01:02;;;;;;;;;;;9.00;99.90;;;;;;5964567;24;19966;-90
2022/10/09 00:03:27;;;;;;;;;;;9.00;99.90;;;;;;5987752;24;19973;-91
2022/10/09 00:05:53;;;;;;;;;;;9.00;99.90;;;;;;5987255;24;19919;-92
2022/10/09 00:08:18;;;;;;;;;;;9.00;99.90;;;;;;5989492;24;20001;-91
2022/10/09 00:10:44;;;;;;;;;;;9.00;99.90;;;;;;5973493;24;19899;-91
2022/10/09 00:13:10;;;;;;;;;;;8.90;99.90;;;;;;6007669;23;19946;-92
2022/10/09 00:15:38;;;;;;;;;;;8.90;99.90;;;;;;6007884;23;19982;-91
2022/10/09 00:18:05;;;;;;;;;;;8.90;99.90;;;;;;6025700;23;19946;-91
2022/10/09 00:20:34;;;;;;;;;;;8.90;99.90;;;;;;5999454;24;19921;-91
2022/10/09 00:22:59;;;;;;;;;;;8.90;99.90;;;;;;5987322;23;19965;-91
2022/10/09 00:25:25;;;;;;;;;;;8.90;99.90;;;;;;6005044;23;19914;-92
2022/10/09 00:27:50;;;;;;;;;;;8.90;99.90;;;;;;5981985;24;19914;-91
2022/10/09 00:30:16;;;;;;;;;;;8.90;99.90;;;;;;5957275;24;19919;-92
2022/10/09 00:32:41;;;;;;;;;;;8.80;99.90;;;;;;5982406;24;19914;-91
2022/10/09 00:35:07;;;;;;;;;;;8.80;99.90;;;;;;6004570;23;19914;-91
2022/10/09 00:37:32;;;;;;;;;;;8.90;99.90;;;;;;5980731;24;19921;-91
2022/10/09 00:39:58;;;;;;;;;;;8.80;99.90;;;;;;5957193;24;19922;-91
2022/10/09 00:42:25;;;;;;;;;;;8.80;99.90;;;;;;6004429;23;19914;-91
2022/10/09 00:44:56;;;;;;;;;;;8.80;99.90;;;;;;6005034;23;19965;-91
2022/10/09 00:47:40;;;;;;;;;;;8.80;99.90;;;;;;5957930;24;19921;-91
2022/10/09 00:50:16;;;;;;;;;;;8.80;99.90;;;;;;5981372;24;19926;-91
2022/10/09 00:52:42;;;;;;;;;;;8.70;99.90;;;;;;5982538;24;20006;-91
2022/10/09 00:55:09;;;;;;;;;;;8.80;99.90;;;;;;5985320;24;20238;-92
2022/10/09 00:57:36;;;;;;;;;;;8.70;99.90;;;;;;5983797;24;19955;-90
2022/10/09 01:00:04;;;;;;;;;;;8.60;99.90;;;;;;5960873;24;19921;-91
2022/10/09 01:02:29;;;;;;;;;;;8.70;99.90;;;;;;6005174;23;20319;-90
2022/10/09 01:04:55;;;;;;;;;;;8.80;99.90;;;;;;5983514;24;19969;-92
2022/10/09 01:07:30;;;;;;;;;;;8.70;99.90;;;;;;5958446;24;19993;-90
2022/10/09 01:10:01;;;;;;;;;;;8.70;99.90;;;;;;6004016;23;19919;-89
2022/10/09 01:12:40;;;;;;;;;;;8.60;99.90;;;;;;6005729;23;19926;-91
2022/10/09 01:15:12;;;;;;;;;;;8.60;99.90;;;;;;5982609;24;19939;-91
2022/10/09 01:17:45;;;;;;;;;;;8.60;99.90;;;;;;6005324;23;20313;-91
2022/10/09 01:20:26;;;;;;;;;;;8.60;99.90;;;;;;6004366;23;19914;-91
2022/10/09 01:22:52;;;;;;;;;;;8.60;99.90;;;;;;6003840;23;19989;-91
2022/10/09 01:25:21;;;;;;;;;;;8.50;99.90;;;;;;5956146;24;20286;-90
2022/10/09 01:27:47;;;;;;;;;;;8.50;99.90;;;;;;5956551;24;19918;-91
2022/10/09 01:30:12;;;;;;;;;;;8.40;99.90;;;;;;5957589;24;19921;-90
2022/10/09 01:32:43;;;;;;;;;;;8.50;99.90;;;;;;6004088;23;19994;-92
2022/10/09 01:35:10;;;;;;;;;;;8.40;99.90;;;;;;6004225;23;20334;-92
2022/10/09 01:37:37;;;;;;;;;;;8.50;99.90;;;;;;5981047;24;19994;-91
2022/10/09 01:40:03;;;;;;;;;;;8.50;99.90;;;;;;6003520;23;19987;-90
2022/10/09 01:42:30;;;;;;;;;;;8.40;99.90;;;;;;5980396;24;19971;-91
2022/10/09 01:44:55;;;;;;;;;;;8.50;99.90;;;;;;5980458;24;19979;-91
2022/10/09 01:47:21;;;;;;;;;;;8.30;99.90;;;;;;5956949;24;19952;-92
2022/10/09 01:50:02;;;;;;;;;;;8.40;99.90;;;;;;6003013;23;19919;-91
2022/10/09 01:52:47;;;;;;;;;;;8.30;99.90;;;;;;5956784;24;19919;-90
2022/10/09 01:55:24;;;;;;;;;;;8.30;99.90;;;;;;5957171;24;19993;-91
2022/10/09 01:58:00;;;;;;;;;;;8.30;99.90;;;;;;6003735;23;20332;-91
2022/10/09 02:00:27;;;;;;;;;;;8.20;99.90;;;;;;5981925;24;20285;-91
2022/10/09 02:02:53;;;;;;;;;;;8.30;99.90;;;;;;6003053;23;19914;-90
2022/10/09 02:05:25;;;;;;;;;;;8.20;99.90;;;;;;5984253;23;19922;-90
2022/10/09 02:07:51;;;;;;;;;;;8.20;99.90;;;;;;5981970;24;19914;-91
2022/10/09 02:10:17;;;;;;;;;;;8.20;99.90;;;;;;6005250;23;19943;-90
2022/10/09 02:12:45;;;;;;;;;;;8.10;99.90;;;;;;6005891;23;20277;-91
2022/10/09 02:15:11;;;;;;;;;;;8.10;99.90;;;;;;6006126;23;19914;-91
2022/10/09 02:17:41;;;;;;;;;;;8.10;99.90;;;;;;6005589;23;19929;-91
2022/10/09 02:20:18;;;;;;;;;;;8.10;99.90;;;;;;5959420;24;20244;-90
2022/10/09 02:22:45;;;;;;;;;;;8.10;99.90;;;;;;6005231;23;19919;-90
2022/10/09 02:25:10;;;;;;;;;;;8.10;99.90;;;;;;6006090;23;19914;-91
2022/10/09 02:27:36;;;;;;;;;;;8.10;99.90;;;;;;6004934;23;19938;-90
2022/10/09 02:30:03;;;;;;;;;;;8.00;99.90;;;;;;6005022;23;20253;-91
2022/10/09 02:32:28;;;;;;;;;;;8.00;99.90;;;;;;5983457;23;19918;-91
2022/10/09 02:34:54;;;;;;;;;;;8.00;99.90;;;;;;5983453;24;20006;-91
2022/10/09 02:37:19;;;;;;;;;;;8.00;99.90;;;;;;6004770;23;20233;-91
2022/10/09 02:39:45;;;;;;;;;;;8.00;99.90;;;;;;6005434;23;20329;-91
2022/10/09 02:42:11;;;;;;;;;;;8.00;99.90;;;;;;6005903;23;19943;-91
2022/10/09 02:44:36;;;;;;;;;;;8.00;99.90;;;;;;5983272;24;19918;-91
2022/10/09 02:47:02;;;;;;;;;;;7.90;99.90;;;;;;5982148;24;19919;-91
2022/10/09 02:49:28;;;;;;;;;;;7.90;99.90;;;;;;5981307;24;19970;-90
2022/10/09 02:51:53;;;;;;;;;;;8.00;99.90;;;;;;5958004;24;19957;-91
2022/10/09 02:54:19;;;;;;;;;;;7.90;99.90;;;;;;6005094;23;20253;-91
2022/10/09 02:56:45;;;;;;;;;;;7.90;99.90;;;;;;5958462;24;20401;-91
2022/10/09 02:59:10;;;;;;;;;;;7.80;99.90;;;;;;6005108;23;19914;-90
2022/10/09 03:01:36;;;;;;;;;;;7.80;99.90;;;;;;6004956;23;20325;-90
2022/10/09 03:04:02;;;;;;;;;;;7.80;99.90;;;;;;5958276;24;19922;-91
2022/10/09 03:06:27;;;;;;;;;;;7.80;99.90;;;;;;5982899;23;20276;-91
2022/10/09 03:08:54;;;;;;;;;;;7.80;99.90;;;;;;5958570;24;19918;-89
2022/10/09 03:11:20;;;;;;;;;;;7.70;99.90;;;;;;5962566;24;19914;-91
2022/10/09 03:13:46;;;;;;;;;;;7.70;99.90;;;;;;5985057;24;19942;-92
2022/10/09 03:16:19;;;;;;;;;;;7.60;99.90;;;;;;5959100;24;19915;-90
2022/10/09 03:18:45;;;;;;;;;;;7.60;99.90;;;;;;5983382;24;19915;-91
2022/10/09 03:21:12;;;;;;;;;;;7.60;99.90;;;;;;5958797;24;19949;-91
2022/10/09 03:23:38;;;;;;;;;;;7.60;99.90;;;;;;5983304;24;19998;-91
2022/10/09 03:26:05;;;;;;;;;;;7.50;99.90;;;;;;6004966;23;20238;-91
2022/10/09 03:28:33;;;;;;;;;;;7.40;99.90;;;;;;5983132;24;19915;-91
2022/10/09 03:30:59;;;;;;;;;;;7.40;99.90;;;;;;5983008;23;19921;-92
2022/10/09 03:33:24;;;;;;;;;;;7.30;99.90;;;;;;6005326;23;19919;-91
2022/10/09 03:35:50;;;;;;;;;;;7.20;99.90;;;;;;5958090;24;19991;-91
2022/10/09 03:38:16;;;;;;;;;;;7.20;99.90;;;;;;6005063;23;19938;-92
2022/10/09 03:40:41;;;;;;;;;;;7.10;99.90;;;;;;5958542;24;19919;-91
2022/10/09 03:43:07;;;;;;;;;;;7.10;99.90;;;;;;6004195;23;19914;-92
2022/10/09 03:45:33;;;;;;;;;;;7.10;99.90;;;;;;6005216;23;20331;-91
2022/10/09 03:47:58;;;;;;;;;;;7.00;99.90;;;;;;6006239;23;19983;-92
2022/10/09 03:50:24;;;;;;;;;;;7.00;99.90;;;;;;6006396;23;19942;-92
2022/10/09 03:52:50;;;;;;;;;;;7.00;99.90;;;;;;6006494;23;19914;-91
2022/10/09 03:55:15;;;;;;;;;;;6.90;99.90;;;;;;5962423;24;19914;-93
2022/10/09 03:57:41;;;;;;;;;;;6.90;99.90;;;;;;5985085;24;20054;-92
2022/10/09 04:00:07;;;;;;;;;;;6.90;99.90;;;;;;5988256;23;19914;-92
2022/10/09 04:02:33;;;;;;;;;;;6.90;99.90;;;;;;6016785;23;19976;-91
2022/10/09 04:04:58;;;;;;;;;;;6.90;99.90;;;;;;5973067;24;19922;-91
2022/10/09 04:07:24;;;;;;;;;;;6.90;99.90;;;;;;6018770;23;19914;-92
2022/10/09 04:09:50;;;;;;;;;;;6.80;99.90;;;;;;5969575;24;19925;-92
2022/10/09 04:12:15;;;;;;;;;;;6.80;99.90;;;;;;5966599;24;20137;-92
2022/10/09 04:14:41;;;;;;;;;;;6.60;99.90;;;;;;5965900;24;20262;-91
2022/10/09 04:17:06;;;;;;;;;;;6.70;99.90;;;;;;5990137;23;20359;-91
2022/10/09 04:19:32;;;;;;;;;;;6.70;99.90;;;;;;5965203;24;19914;-91
2022/10/09 04:21:57;;;;;;;;;;;6.70;99.90;;;;;;5967811;24;19925;-92
2022/10/09 04:24:23;;;;;;;;;;;6.70;99.90;;;;;;5985675;24;19914;-91
2022/10/09 04:26:48;;;;;;;;;;;6.60;99.90;;;;;;5959031;24;20253;-92
2022/10/09 04:29:14;;;;;;;;;;;6.60;99.90;;;;;;6006397;23;20293;-92
2022/10/09 04:31:39;;;;;;;;;;;6.60;99.90;;;;;;5993030;24;19952;-91
2022/10/09 04:34:05;;;;;;;;;;;6.70;99.90;;;;;;5996817;23;19921;-91
2022/10/09 04:36:31;;;;;;;;;;;6.60;99.90;;;;;;5970288;24;19954;-91
2022/10/09 04:38:56;;;;;;;;;;;6.60;99.90;;;;;;5969811;24;19954;-92
2022/10/09 04:41:22;;;;;;;;;;;6.70;99.90;;;;;;5964446;24;19919;-92
2022/10/09 04:43:47;;;;;;;;;;;6.70;99.90;;;;;;5987233;24;19925;-93
2022/10/09 04:46:13;;;;;;;;;;;6.80;99.90;;;;;;5958716;24;19915;-92
2022/10/09 04:48:39;;;;;;;;;;;6.70;99.90;;;;;;6005400;23;19919;-93
2022/10/09 04:51:05;;;;;;;;;;;6.60;99.90;;;;;;6005097;23;19915;-93
2022/10/09 04:53:32;;;;;;;;;;;6.60;99.90;;;;;;5961323;24;19919;-92
2022/10/09 04:56:00;;;;;;;;;;;6.60;99.90;;;;;;5959587;24;19918;-92
2022/10/09 04:58:26;;;;;;;;;;;6.50;99.90;;;;;;5959332;24;19921;-92
2022/10/09 05:00:52;;;;;;;;;;;6.50;99.90;;;;;;5958461;24;19950;-92
2022/10/09 05:03:17;;;;;;;;;;;6.60;99.90;;;;;;5981323;24;19918;-92
2022/10/09 05:05:43;;;;;;;;;;;6.50;99.90;;;;;;5958297;24;19933;-92
2022/10/09 05:08:08;;;;;;;;;;;6.50;99.90;;;;;;6004721;23;19925;-93
2022/10/09 05:10:34;;;;;;;;;;;6.50;99.90;;;;;;5982826;24;19938;-92
2022/10/09 05:12:59;;;;;;;;;;;6.40;99.90;;;;;;6004671;23;20332;-93
2022/10/09 05:15:25;;;;;;;;;;;6.40;99.90;;;;;;5959015;24;20036;-91
2022/10/09 05:17:51;;;;;;;;;;;6.30;99.90;;;;;;5970251;24;19927;-93
2022/10/09 05:20:16;;;;;;;;;;;6.40;99.90;;;;;;5988156;23;19915;-92
2022/10/09 05:22:45;;;;;;;;;;;6.30;99.90;;;;;;5958275;24;20402;-92
2022/10/09 05:25:11;;;;;;;;;;;6.30;99.90;;;;;;5981406;24;19915;-92
2022/10/09 05:27:37;;;;;;;;;;;6.30;99.90;;;;;;5957975;24;19979;-92
2022/10/09 05:30:03;;;;;;;;;;;6.30;99.90;;;;;;5957609;24;20344;-94
2022/10/09 05:32:29;;;;;;;;;;;6.30;99.90;;;;;;5957238;24;19918;-92
2022/10/09 05:34:54;;;;;;;;;;;6.30;99.90;;;;;;5982305;24;19915;-93
2022/10/09 05:37:20;;;;;;;;;;;6.30;99.90;;;;;;5981457;24;19915;-92
2022/10/09 05:39:45;;;;;;;;;;;6.30;99.90;;;;;;6005744;23;19954;-92
2022/10/09 05:42:11;;;;;;;;;;;6.20;99.90;;;;;;5983513;24;20012;-92
2022/10/09 05:44:36;;;;;;;;;;;6.20;99.90;;;;;;5960330;24;19962;-90
2022/10/09 05:47:02;;;;;;;;;;;6.20;99.90;;;;;;5984141;24;19914;-92
2022/10/09 05:49:28;;;;;;;;;;;6.20;99.90;;;;;;5983080;24;20249;-92
2022/10/09 05:51:54;;;;;;;;;;;6.20;99.90;;;;;;5959902;24;19956;-93
2022/10/09 05:54:20;;;;;;;;;;;6.20;99.90;;;;;;5959619;24;19921;-92
2022/10/09 05:56:45;;;;;;;;;;;6.20;99.90;;;;;;5959858;24;19954;-92
2022/10/09 05:59:13;;;;;;;;;;;6.20;99.90;;;;;;5983819;24;19961;-91
2022/10/09 06:01:40;;;;;;;;;;;6.10;99.90;;;;;;6006593;23;19915;-92
2022/10/09 06:04:09;;;;;;;;;;;6.20;99.90;;;;;;5983133;24;20051;-92
2022/10/09 06:06:36;;;;;;;;;;;6.20;99.90;;;;;;5959935;24;19914;-92
2022/10/09 06:09:02;;;;;;;;;;;6.10;99.90;;;;;;5959392;24;19914;-93
2022/10/09 06:11:30;;;;;;;;;;;6.10;99.90;;;;;;5982992;24;20013;-92
2022/10/09 06:13:56;;;;;;;;;;;6.20;99.90;;;;;;6006180;23;20321;-92
2022/10/09 06:16:23;;;;;;;;;;;6.10;99.90;;;;;;5983778;24;19922;-92
2022/10/09 06:18:49;;;;;;;;;;;6.10;99.90;;;;;;5959927;24;19945;-92
2022/10/09 06:21:15;;;;;;;;;;;6.10;99.90;;;;;;5982927;24;20381;-92
2022/10/09 06:23:40;;;;;;;;;;;6.10;99.90;;;;;;6006426;23;19957;-92
2022/10/09 06:26:07;;;;;;;;;;;6.10;99.90;;;;;;5982348;24;19922;-94
2022/10/09 06:28:33;;;;;;;;;;;6.20;99.90;;;;;;5958838;24;19953;-92
2022/10/09 06:31:03;;;;;;;;;;;6.10;99.90;;;;;;5959368;24;19918;-92
2022/10/09 06:33:32;;;;;;;;;;;6.20;99.90;;;;;;5960127;24;19950;-94
2022/10/09 06:35:58;;;;;;;;;;;6.20;99.90;;;;;;5983805;24;20261;-92
2022/10/09 06:38:24;;;;;;;;;;;6.30;99.90;;;;;;5983336;24;19914;-92
2022/10/09 06:40:49;;;;;;;;;;;6.30;99.90;;;;;;5982945;24;19966;-91
2022/10/09 06:43:15;;;;;;;;;;;6.30;99.90;;;;;;5982850;24;19914;-91
2022/10/09 06:45:40;;;;;;;;;;;6.30;99.90;;;;;;5982974;24;20325;-91
2022/10/09 06:48:06;;;;;;;;;;;6.40;99.90;;;;;;5959193;24;19926;-92
2022/10/09 06:50:33;;;;;;;;;;;6.40;99.90;;;;;;6005286;23;19918;-92
2022/10/09 06:52:59;;;;;;;;;;;6.40;99.90;;;;;;5959427;24;19945;-93
2022/10/09 06:55:24;;;;;;;;;;;6.40;99.90;;;;;;6006301;23;19914;-92
2022/10/09 06:57:50;;;;;;;;;;;6.50;99.90;;;;;;6005120;23;19966;-92
2022/10/09 07:00:16;;;;;;;;;;;6.60;99.90;;;;;;5958337;24;20290;-92
2022/10/09 07:02:41;;;;;;;;;;;6.60;99.90;;;;;;5959193;24;19937;-92
2022/10/09 07:05:07;;;;;;;;;;;6.60;99.90;;;;;;5958472;24;19934;-92
2022/10/09 07:07:32;;;;;;;;;;;6.70;99.90;;;;;;6005395;23;19922;-92
2022/10/09 07:09:58;;;;;;;;;;;6.70;99.90;;;;;;5982428;24;20294;-92
2022/10/09 07:12:24;;;;;;;;;;;6.90;99.90;;;;;;5981647;24;19915;-91
2022/10/09 07:14:49;;;;;;;;;;;6.90;99.90;;;;;;6006018;23;19918;-92
2022/10/09 07:17:15;;;;;;;;;;;7.00;99.90;;;;;;6005814;23;20338;-92
2022/10/09 07:19:40;;;;;;;;;;;7.10;99.90;;;;;;5960972;24;19922;-93
2022/10/09 07:22:10;;;;;;;;;;;7.10;99.90;;;;;;5964894;24;19926;-92
2022/10/09 07:24:36;;;;;;;;;;;7.10;99.90;;;;;;5968632;24;19914;-92
2022/10/09 07:27:01;;;;;;;;;;;7.10;99.90;;;;;;5962002;24;19922;-91
2022/10/09 07:29:27;;;;;;;;;;;7.20;99.90;;;;;;6005565;23;19918;-93
2022/10/09 07:31:52;;;;;;;;;;;7.30;99.90;;;;;;5958537;24;19922;-93
2022/10/09 07:34:18;;;;;;;;;;;7.40;99.90;;;;;;6006677;23;19915;-92
2022/10/09 07:36:43;;;;;;;;;;;7.50;99.90;;;;;;5960456;24;19921;-92
2022/10/09 07:39:09;;;;;;;;;;;7.50;99.90;;;;;;6007738;23;19919;-92
2022/10/09 07:41:35;;;;;;;;;;;7.60;99.90;;;;;;5960303;24;20333;-91
2022/10/09 07:44:01;;;;;;;;;;;7.60;99.90;;;;;;5960494;24;19914;-91
2022/10/09 07:46:27;;;;;;;;;;;7.70;99.90;;;;;;6012760;23;20329;-92
2022/10/09 07:48:52;;;;;;;;;;;7.70;99.90;;;;;;5969048;24;19938;-91
2022/10/09 07:51:20;;;;;;;;;;;7.80;99.90;;;;;;5968521;24;19926;-91
2022/10/09 07:53:45;;;;;;;;;;;7.80;99.90;;;;;;6017155;23;19963;-91
2022/10/09 07:56:31;;;;;;;;;;;7.80;99.90;;;;;;6013649;23;19918;-91
2022/10/09 07:59:00;;;;;;;;;;;7.90;99.90;;;;;;5987407;23;19945;-91
2022/10/09 08:01:27;;;;;;;;;;;8.00;99.90;;;;;;6004373;23;19914;-91
2022/10/09 08:03:52;;;;;;;;;;;7.90;99.90;;;;;;5982749;24;19950;-91
2022/10/09 08:06:18;;;;;;;;;;;8.10;99.90;;;;;;5957017;24;19982;-91
2022/10/09 08:08:44;;;;;;;;;;;8.20;99.90;;;;;;5980202;24;20061;-91
2022/10/09 08:11:11;;;;;;;;;;;8.30;99.90;;;;;;5956516;24;19925;-91
2022/10/09 08:13:37;;;;;;;;;;;8.40;99.90;;;;;;5956926;24;20255;-90
2022/10/09 08:16:03;;;;;;;;;;;8.40;99.90;;;;;;6003370;23;19915;-91
2022/10/09 08:18:28;;;;;;;;;;;8.50;99.90;;;;;;6003410;23;20245;-90
2022/10/09 08:20:58;;;;;;;;;;;8.60;99.90;;;;;;6003477;23;19914;-91
2022/10/09 08:23:24;;;;;;;;;;;8.70;99.90;;;;;;5981745;23;19919;-91
2022/10/09 08:25:49;;;;;;;;;;;8.70;99.90;;;;;;5980863;24;19914;-90
2022/10/09 08:28:15;;;;;;;;;;;8.80;99.90;;;;;;5981216;24;20390;-91
2022/10/09 08:30:41;;;;;;;;;;;8.90;99.90;;;;;;6003446;23;20341;-91
2022/10/09 08:33:06;;;;;;;;;;;9.00;99.90;;;;;;6002674;23;20249;-91
2022/10/09 08:35:32;;;;;;;;;;;9.00;99.90;;;;;;6002754;23;19915;-90
2022/10/09 08:37:57;;;;;;;;;;;9.10;99.90;;;;;;6002628;23;19914;-91
2022/10/09 08:40:32;;;;;;;;;;;9.20;99.90;;;;;;5955476;24;19922;-90
2022/10/09 08:43:02;;;;;;;;;;;9.30;99.90;;;;;;6002599;23;19918;-89
2022/10/09 08:45:28;;;;;;;;;;;9.40;99.90;;;;;;6002755;23;19978;-90
2022/10/09 08:47:56;;;;;;;;;;;9.50;99.90;;;;;;5980716;24;20249;-91
2022/10/09 08:50:24;;;;;;;;;;;9.60;99.90;;;;;;6002470;23;19926;-90
2022/10/09 08:52:56;;;;;;;;;;;9.70;99.90;;;;;;5979799;24;19921;-91
2022/10/09 08:55:23;;;;;;;;;;;9.70;99.90;;;;;;5955354;24;19993;-90
2022/10/09 08:57:50;;;;;;;;;;;9.80;99.90;;;;;;6002530;23;19921;-91
2022/10/09 09:00:17;;;;;;;;;;;9.80;99.90;;;;;;5956291;24;19922;-90
2022/10/09 09:02:43;;;;;;;;;;;9.90;99.90;;;;;;5979671;24;19923;-91
2022/10/09 09:05:18;;;;;;;;;;;10.00;99.90;;;;;;6002553;23;19976;-91
2022/10/09 09:08:09;;;;;;;;;;;10.10;99.90;;;;;;5980666;23;19914;-89
2022/10/09 09:11:01;;;;;;;;;;;10.20;99.90;;;;;;6001725;23;19919;-90
2022/10/09 09:13:46;;;;;;;;;;;10.30;99.90;;;;;;5978978;24;19953;-90
2022/10/09 09:16:16;;;;;;;;;;;10.30;99.90;;;;;;5979469;24;19955;-90
2022/10/09 09:19:08;;;;;;;;;;;10.40;99.90;;;;;;6002968;23;20281;-90
2022/10/09 09:21:46;;;;;;;;;;;10.50;99.90;;;;;;5974567;24;20051;-90
2022/10/09 09:24:14;;;;;;;;;;;10.60;99.90;;;;;;5956062;24;19914;-91
2022/10/09 09:26:42;;;;;;;;;;;10.70;99.90;;;;;;5981086;24;20282;-90
2022/10/09 09:29:09;;;;;;;;;;;10.80;99.90;;;;;;5981479;24;19918;-90
2022/10/09 09:31:35;;;;;;;;;;;10.90;99.90;;;;;;6003774;23;19925;-91
2022/10/09 09:34:04;;;;;;;;;;;11.00;99.90;;;;;;5980596;23;19929;-91
2022/10/09 09:36:37;;;;;;;;;;;11.00;99.90;;;;;;6002643;23;19922;-91
2022/10/09 09:39:03;;;;;;;;;;;11.10;99.90;;;;;;5978951;24;20283;-91
2022/10/09 09:41:28;;;;;;;;;;;11.20;99.90;;;;;;5978659;24;19915;-90
2022/10/09 09:43:54;;;;;;;;;;;11.30;99.90;;;;;;6002299;23;20226;-91
2022/10/09 09:46:22;;;;;;;;;;;11.50;99.90;;;;;;5979079;24;20222;-91
2022/10/09 09:48:47;;;;;;;;;;;11.50;99.90;;;;;;5956195;24;19926;-91
2022/10/09 09:51:16;;;;;;;;;;;11.60;99.90;;;;;;6003326;23;19919;-91
2022/10/09 09:53:43;;;;;;;;;;;11.60;99.90;;;;;;6002661;23;19946;-91
2022/10/09 09:56:09;;;;;;;;;;;11.70;99.90;;;;;;5980106;24;19918;-92
2022/10/09 09:58:36;;;;;;;;;;;11.80;99.90;;;;;;5956319;24;19914;-92
2022/10/09 10:01:03;;;;;;;;;;;11.80;99.90;;;;;;5956067;24;19914;-92
2022/10/09 10:03:29;;;;;;;;;;;11.90;99.90;;;;;;5956361;24;19937;-92
2022/10/09 10:05:55;;;;;;;;;;;11.90;99.90;;;;;;5956504;24;19944;-93
2022/10/09 10:08:28;;;;;;;;;;;11.90;99.90;;;;;;6002912;23;19918;-92
2022/10/09 10:10:55;;;;;;;;;;;12.00;99.90;;;;;;6003345;23;19923;-93
2022/10/09 10:13:22;;;;;;;;;;;12.00;99.90;;;;;;5956202;24;19989;-91
2022/10/09 10:15:52;;;;;;;;;;;12.00;99.90;;;;;;5981957;23;20260;-93
2022/10/09 10:18:18;;;;;;;;;;;12.10;99.90;;;;;;6003532;23;19915;-92
2022/10/09 10:20:44;;;;;;;;;;;12.10;99.90;;;;;;5981961;24;19966;-92
2022/10/09 10:23:45;;;;;;;;;;;12.20;99.90;;;;;;5956179;24;19914;-92
2022/10/09 10:26:40;;;;;;;;;;;12.20;99.90;;;;;;5925524;24;19927;-92
2022/10/09 10:29:17;;;;;;;;;;;12.30;99.90;;;;;;5890589;24;19915;-92
2022/10/09 10:32:01;;;;;;;;;;;12.30;99.90;;;;;;5880169;24;19925;-92
2022/10/09 10:34:29;;;;;;;;;;;12.40;99.90;;;;;;5925541;24;19966;-93
2022/10/09 10:36:58;;;;;;;;;;;12.50;99.90;;;;;;5902156;24;19919;-94
2022/10/09 10:39:28;;;;;;;;;;;12.50;99.90;;;;;;5879564;24;19915;-92
2022/10/09 10:41:56;;;;;;;;;;;12.50;99.90;;;;;;5902476;24;19923;-93
2022/10/09 10:44:26;;;;;;;;;;;12.60;99.90;;;;;;5902541;24;19915;-93
2022/10/09 10:46:55;;;;;;;;;;;12.60;99.90;;;;;;5901393;24;20048;-92
2022/10/09 10:49:21;;;;;;;;;;;12.70;99.90;;;;;;5902635;24;19919;-93
2022/10/09 10:51:53;;;;;;;;;;;12.80;99.90;;;;;;5924624;24;19972;-92
2022/10/09 10:54:22;;;;;;;;;;;12.80;99.90;;;;;;5924673;24;19922;-92
2022/10/09 10:56:52;;;;;;;;;;;12.90;99.90;;;;;;5924871;24;19915;-94
2022/10/09 10:59:29;;;;;;;;;;;13.00;99.90;;;;;;5934139;24;20253;-93
2022/10/09 11:02:07;;;;;;;;;;;13.00;99.90;;;;;;5984075;24;20355;-93
2022/10/09 11:04:40;;;;;;;;;;;13.00;99.90;;;;;;5963539;24;19915;-94
2022/10/09 11:07:25;;;;;;;;;;;13.00;99.90;;;;;;5964161;24;19915;-93
2022/10/09 11:10:13;;;;;;;;;;;13.00;99.90;;;;;;5985304;24;20241;-92
2022/10/09 11:12:44;;;;;;;;;;;13.00;99.90;;;;;;5984262;24;19965;-94
2022/10/09 11:15:18;;;;;;;;;;;13.10;99.90;;;;;;6007933;23;20005;-93
2022/10/09 11:17:59;;;;;;;;;;;13.20;99.90;;;;;;5959967;24;19918;-93
2022/10/09 11:20:30;;;;;;;;;;;13.20;99.90;;;;;;6006522;23;19953;-93
2022/10/09 11:23:08;;;;;;;;;;;13.20;99.90;;;;;;5963134;24;19940;-95
2022/10/09 11:25:53;;;;;;;;;;;13.20;99.90;;;;;;5969487;24;19929;-95
2022/10/09 11:28:25;;;;;;;;;;;13.30;99.90;;;;;;5991549;24;19945;-96
2022/10/09 11:30:58;;;;;;;;;;;13.30;99.90;;;;;;5968150;24;19922;-93
2022/10/09 11:33:30;;;;;;;;;;;13.30;99.90;;;;;;5967690;24;19974;-93
2022/10/09 11:35:59;;;;;;;;;;;13.30;99.90;;;;;;5970907;24;19914;-94
2022/10/09 11:38:28;;;;;;;;;;;13.40;99.90;;;;;;6004503;24;19919;-94
2022/10/09 11:40:54;;;;;;;;;;;13.40;99.90;;;;;;5978799;24;19918;-93
2022/10/09 11:43:23;;;;;;;;;;;13.40;99.90;;;;;;6005620;23;19902;-93
2022/10/09 11:46:08;;;;;;;;;;;13.50;99.90;;;;;;5983982;24;19929;-95
2022/10/09 11:48:37;;;;;;;;;;;13.50;99.90;;;;;;5978046;24;19922;-92
2022/10/09 11:51:02;;;;;;;;;;;13.60;99.90;;;;;;5970277;24;19950;-93
2022/10/09 11:53:30;;;;;;;;;;;13.60;99.90;;;;;;5958817;24;20244;-93
2022/10/09 11:56:03;;;;;;;;;;;13.60;99.90;;;;;;5982278;24;20328;-94
2022/10/09 11:58:28;;;;;;;;;;;13.70;99.90;;;;;;5958287;24;19965;-93
2022/10/09 12:00:55;;;;;;;;;;;13.70;99.90;;;;;;5982908;24;19919;-92
2022/10/09 12:03:28;;;;;;;;;;;13.80;99.90;;;;;;5982479;24;19914;-94
2022/10/09 12:06:01;;;;;;;;;;;13.80;99.90;;;;;;5959166;24;19914;-94
2022/10/09 12:08:27;;;;;;;;;;;13.80;99.90;;;;;;5959272;24;20319;-94
2022/10/09 12:10:56;;;;;;;;;;;13.90;99.90;;;;;;5982209;24;19954;-95
2022/10/09 12:13:29;;;;;;;;;;;13.80;99.90;;;;;;5982542;24;19922;-93
2022/10/09 12:15:56;;;;;;;;;;;13.90;99.90;;;;;;6005910;23;19915;-94
2022/10/09 12:18:27;;;;;;;;;;;13.90;99.90;;;;;;5958398;24;19918;-93
2022/10/09 12:20:54;;;;;;;;;;;13.90;99.90;;;;;;5982836;24;19918;-94
2022/10/09 12:23:22;;;;;;;;;;;13.90;99.90;;;;;;6005081;23;19942;-94
2022/10/09 12:25:48;;;;;;;;;;;13.90;99.90;;;;;;5958445;24;19922;-94
2022/10/09 12:28:34;;;;;;;;;;;13.90;99.90;;;;;;5981814;24;19914;-93
2022/10/09 12:31:01;;;;;;;;;;;14.00;99.90;;;;;;5979964;23;19950;-94
2022/10/09 12:33:39;;;;;;;;;;;14.00;99.90;;;;;;5980609;24;19926;-94
2022/10/09 12:36:04;;;;;;;;;;;14.10;99.90;;;;;;6004849;23;19961;-94
2022/10/09 12:38:30;;;;;;;;;;;14.10;99.90;;;;;;5983379;24;19915;-93
2022/10/09 12:41:01;;;;;;;;;;;14.10;99.90;;;;;;5956914;24;19965;-92
2022/10/09 12:43:27;;;;;;;;;;;14.10;99.90;;;;;;5956711;24;19923;-90
2022/10/09 12:45:53;;;;;;;;;;;14.20;99.90;;;;;;6002556;23;20290;-92
2022/10/09 12:48:24;;;;;;;;;;;14.20;99.90;;;;;;6004130;23;20050;-94
2022/10/09 12:50:51;;;;;;;;;;;14.20;99.90;;;;;;5981513;23;19919;-90
2022/10/09 12:53:26;;;;;;;;;;;14.10;99.90;;;;;;5981502;24;19977;-91
2022/10/09 12:55:54;;;;;;;;;;;14.10;99.90;;;;;;6003622;23;20405;-91
2022/10/09 12:58:24;;;;;;;;;;;14.30;99.90;;;;;;6004341;23;20244;-91
2022/10/09 13:00:52;;;;;;;;;;;14.20;99.90;;;;;;5980062;24;19919;-90
2022/10/09 13:03:37;;;;;;;;;;;14.10;99.90;;;;;;5982180;23;19922;-91
2022/10/09 13:06:04;;;;;;;;;;;14.20;99.90;;;;;;5980382;23;20185;-90
2022/10/09 13:08:32;;;;;;;;;;;14.20;99.90;;;;;;5982262;23;19998;-91
2022/10/09 13:11:16;;;;;;;;;;;14.20;99.90;;;;;;5980337;24;19945;-92
2022/10/09 13:13:42;;;;;;;;;;;14.30;99.90;;;;;;5982347;24;20286;-91
2022/10/09 13:16:09;;;;;;;;;;;14.30;99.90;;;;;;5981003;24;19918;-89
2022/10/09 13:18:35;;;;;;;;;;;14.30;99.90;;;;;;6002751;23;19920;-89
2022/10/09 13:21:21;;;;;;;;;;;14.30;99.90;;;;;;5956366;24;19921;-90
2022/10/09 13:23:47;;;;;;;;;;;14.30;99.90;;;;;;5954270;24;19937;-88
2022/10/09 13:26:21;;;;;;;;;;;14.30;99.90;;;;;;6002199;23;19926;-88
2022/10/09 13:28:46;;;;;;;;;;;14.30;99.90;;;;;;6001583;23;19922;-88
2022/10/09 13:31:12;;;;;;;;;;;14.30;99.90;;;;;;6001780;23;19971;-88
2022/10/09 13:33:37;;;;;;;;;;;14.30;99.90;;;;;;6000701;23;19918;-89
2022/10/09 13:36:03;;;;;;;;;;;14.20;99.90;;;;;;5978029;24;20306;-89
2022/10/09 13:38:29;;;;;;;;;;;14.30;99.90;;;;;;5976229;24;20419;-89
2022/10/09 13:40:55;;;;;;;;;;;14.30;99.90;;;;;;6008957;23;19954;-94
2022/10/09 13:43:22;;;;;;;;;;;14.30;99.90;;;;;;5972581;24;19907;-93
2022/10/09 13:45:48;;;;;;;;;;;14.30;99.90;;;;;;5989127;24;19923;-93
2022/10/09 13:48:13;;;;;;;;;;;14.30;99.90;;;;;;5982774;24;19979;-93
2022/10/09 13:50:39;;;;;;;;;;;14.30;99.90;;;;;;5981854;24;20338;-93
2022/10/09 13:53:05;;;;;;;;;;;14.30;99.90;;;;;;5957409;24;20014;-94
2022/10/09 13:55:31;;;;;;;;;;;14.30;99.90;;;;;;5980718;24;19919;-93
2022/10/09 13:57:56;;;;;;;;;;;14.30;99.90;;;;;;5981978;24;19989;-93
2022/10/09 14:00:22;;;;;;;;;;;14.50;99.90;;;;;;5958170;24;19914;-93
2022/10/09 14:02:47;;;;;;;;;;;14.50;99.90;;;;;;6005429;23;19998;-93
2022/10/09 14:05:13;;;;;;;;;;;14.50;99.90;;;;;;5982104;24;19915;-93
2022/10/09 14:07:38;;;;;;;;;;;14.50;99.90;;;;;;5982889;24;19914;-92
2022/10/09 14:10:04;;;;;;;;;;;14.60;99.90;;;;;;6004625;23;20357;-93
2022/10/09 14:12:30;;;;;;;;;;;14.60;99.90;;;;;;5982234;24;19989;-93
2022/10/09 14:14:55;;;;;;;;;;;14.50;99.90;;;;;;5982521;24;19915;-94
2022/10/09 14:17:21;;;;;;;;;;;14.50;99.90;;;;;;6006613;23;19970;-93
2022/10/09 14:19:47;;;;;;;;;;;14.50;99.90;;;;;;5982206;24;20420;-92
2022/10/09 14:22:13;;;;;;;;;;;14.50;99.90;;;;;;5959346;24;19915;-92
2022/10/09 14:24:39;;;;;;;;;;;14.50;99.90;;;;;;5958777;24;20329;-95
2022/10/09 14:27:05;;;;;;;;;;;14.50;99.90;;;;;;6003650;23;19914;-92
2022/10/09 14:29:30;;;;;;;;;;;14.50;99.90;;;;;;5982746;24;19919;-95
2022/10/09 14:31:56;;;;;;;;;;;14.50;99.90;;;;;;5961639;24;19929;-93